Metar z połowy godziny Komunikat METAR ze strony awiacja.imgw.pl Metar Mil EPMM METAR EPMM 271400Z 26009KT 230V300 9999 OVC009 01/01 Q0995 RMK 011 100 8/8=